^^
Station Historical Data
Daily Summary for December 8, 2017 Units:  English    Metric   Both
« Previous Day
Next Day »
Daily Weekly Monthly Yearly Custom
  High: Low: Average:
Temperature: 34.3 °F 31.1 °F 32.4 °F
Dew Point: 32.5 °F 27.0 °F 30.7 °F
Humidity: 98% 74% 93%
Wind Speed: 0.0mph 0.0mph 0mph
Wind Gust: 0.0mph - -
Wind- - North
Pressure: 30.11 in 29.93 in -
Precipitation: 0.00 in    
Historical Graphs
 
 
Tabular Data for December 8, 2017
Time Temperature Dew Point Pressure Wind Wind Speed Wind Gust Humidity Rainfall Rate (Hourly)
00:04 34.3 °F 27.0 °F 30.11 in Calm     74% 0.00 in
00:09 34.2 °F 27.1 °F 30.11 in Calm     75% 0.00 in
00:14 34.0 °F 27.5 °F 30.11 in Calm     77% 0.00 in
00:19 33.6 °F 27.9 °F 30.11 in Calm     79% 0.00 in
00:24 33.4 °F 27.3 °F 30.10 in Calm     78% 0.00 in
00:29 33.4 °F 28.2 °F 30.10 in Calm     81% 0.00 in
00:34 33.4 °F 28.6 °F 30.09 in Calm     82% 0.00 in
00:39 33.4 °F 29.1 °F 30.09 in Calm     84% 0.00 in
00:44 33.4 °F 28.2 °F 30.08 in Calm     81% 0.00 in
00:49 33.4 °F 28.8 °F 30.08 in Calm     83% 0.00 in
00:54 33.4 °F 28.6 °F 30.08 in Calm     82% 0.00 in
00:59 33.6 °F 28.8 °F 30.08 in Calm     82% 0.00 in
01:04 33.4 °F 29.1 °F 30.08 in Calm     84% 0.00 in
01:09 33.4 °F 28.8 °F 30.07 in Calm     83% 0.00 in
01:14 33.4 °F 28.2 °F 30.07 in Calm     81% 0.00 in
01:19 33.4 °F 27.9 °F 30.06 in Calm     80% 0.00 in
01:25 33.4 °F 28.8 °F 30.07 in Calm     83% 0.00 in
01:30 33.4 °F 29.1 °F 30.06 in Calm     84% 0.00 in
01:35 33.4 °F 29.5 °F 30.06 in Calm     85% 0.00 in
01:40 33.4 °F 29.5 °F 30.06 in Calm     85% 0.00 in
01:45 33.4 °F 29.5 °F 30.07 in Calm     85% 0.00 in
01:50 33.3 °F 29.5 °F 30.06 in Calm     86% 0.00 in
01:55 33.3 °F 29.5 °F 30.06 in Calm     86% 0.00 in
02:00 33.3 °F 29.3 °F 30.06 in Calm     85% 0.00 in
02:05 33.4 °F 30.0 °F 30.06 in Calm     87% 0.00 in
02:10 33.4 °F 30.0 °F 30.06 in Calm     87% 0.00 in
02:15 33.4 °F 30.2 °F 30.06 in Calm     88% 0.00 in
02:20 33.4 °F 30.0 °F 30.07 in Calm     87% 0.00 in
02:25 33.4 °F 30.0 °F 30.07 in Calm     87% 0.00 in
02:30 33.4 °F 30.2 °F 30.07 in Calm     88% 0.00 in
02:35 33.4 °F 30.2 °F 30.07 in Calm     88% 0.00 in
02:40 33.4 °F 30.2 °F 30.08 in Calm     88% 0.00 in
02:45 33.4 °F 30.2 °F 30.08 in Calm     88% 0.00 in
02:50 33.4 °F 30.2 °F 30.08 in Calm     88% 0.00 in
02:55 33.4 °F 30.0 °F 30.08 in Calm     87% 0.00 in
03:00 33.4 °F 29.7 °F 30.09 in Calm     86% 0.00 in
03:05 33.6 °F 29.7 °F 30.09 in Calm     85% 0.00 in
03:10 33.6 °F 29.3 °F 30.09 in Calm     84% 0.00 in
03:20 33.6 °F 29.3 °F 30.09 in Calm     84% 0.00 in
03:25 33.6 °F 29.3 °F 30.09 in Calm     84% 0.00 in
03:35 34.0 °F 29.3 °F 30.10 in Calm     83% 0.00 in
03:37 34.0 °F 29.3 °F 30.10 in Calm     83% 0.00 in
03:42 34.0 °F 29.3 °F 30.10 in Calm     83% 0.00 in
03:52 34.0 °F 29.3 °F 30.09 in Calm     83% 0.00 in
03:57 34.0 °F 29.7 °F 30.09 in Calm     84% 0.00 in
04:02 34.0 °F 29.7 °F 30.08 in Calm     84% 0.00 in
04:07 34.0 °F 29.7 °F 30.07 in Calm     84% 0.00 in
04:17 34.0 °F 29.1 °F 30.06 in Calm     82% 0.00 in
04:22 34.0 °F 29.1 °F 30.07 in Calm     82% 0.00 in
04:42 34.2 °F 29.8 °F 30.07 in Calm     84% 0.00 in
04:47 34.2 °F 30.2 °F 30.07 in Calm     85% 0.00 in
04:52 34.0 °F 30.2 °F 30.07 in Calm     86% 0.00 in
04:57 34.0 °F 30.2 °F 30.07 in Calm     86% 0.00 in
05:02 33.6 °F 29.8 °F 30.06 in Calm     86% 0.00 in
05:08 33.4 °F 30.0 °F 30.06 in Calm     87% 0.00 in
05:13 33.3 °F 30.0 °F 30.07 in Calm     88% 0.00 in
05:23 33.1 °F 30.4 °F 30.07 in Calm     90% 0.00 in
05:28 32.7 °F 30.2 °F 30.06 in Calm     90% 0.00 in
05:33 32.5 °F 30.2 °F 30.06 in Calm     91% 0.00 in
05:38 32.4 °F 30.0 °F 30.06 in Calm     91% 0.00 in
05:43 32.2 °F 30.2 °F 30.06 in Calm     92% 0.00 in
05:48 32.2 °F 30.2 °F 30.06 in Calm     92% 0.00 in
05:53 32.0 °F 30.0 °F 30.06 in Calm     92% 0.00 in
05:58 31.8 °F 30.0 °F 30.07 in Calm     93% 0.00 in
06:03 31.8 °F 30.0 °F 30.07 in Calm     93% 0.00 in
06:08 31.8 °F 30.0 °F 30.07 in Calm     93% 0.00 in
06:13 31.6 °F 29.8 °F 30.06 in Calm     93% 0.00 in
06:18 31.6 °F 29.8 °F 30.05 in Calm     93% 0.00 in
06:28 31.5 °F 30.0 °F 30.04 in Calm     94% 0.00 in
06:33 31.5 °F 30.0 °F 30.05 in Calm     94% 0.00 in
06:38 31.5 °F 30.0 °F 30.04 in Calm     94% 0.00 in
06:43 31.5 °F 30.0 °F 30.04 in Calm     94% 0.00 in
06:48 31.3 °F 29.8 °F 30.04 in Calm     94% 0.00 in
06:53 31.3 °F 29.8 °F 30.03 in Calm     94% 0.00 in
07:03 31.3 °F 30.0 °F 30.04 in Calm     95% 0.00 in
07:04 31.3 °F 30.0 °F 30.04 in Calm     95% 0.00 in
07:09 31.3 °F 30.0 °F 30.04 in Calm     95% 0.00 in
07:14 31.3 °F 30.0 °F 30.04 in Calm     95% 0.00 in
07:19 31.3 °F 30.0 °F 30.05 in Calm     95% 0.00 in
07:29 31.3 °F 30.0 °F 30.05 in Calm     95% 0.00 in
07:34 31.3 °F 30.2 °F 30.05 in Calm     96% 0.00 in
07:39 31.3 °F 30.2 °F 30.05 in Calm     96% 0.00 in
07:44 31.3 °F 30.2 °F 30.06 in Calm     96% 0.00 in
07:49 31.3 °F 30.2 °F 30.06 in Calm     96% 0.00 in
07:54 31.1 °F 30.0 °F 30.06 in Calm     96% 0.00 in
07:59 31.1 °F 30.0 °F 30.06 in Calm     96% 0.00 in
08:04 31.1 °F 30.0 °F 30.06 in Calm     96% 0.00 in
08:09 31.3 °F 30.2 °F 30.06 in Calm     96% 0.00 in
08:14 31.3 °F 30.2 °F 30.06 in Calm     96% 0.00 in
08:19 31.3 °F 30.2 °F 30.06 in Calm     96% 0.00 in
08:24 31.3 °F 30.2 °F 30.06 in Calm     96% 0.00 in
08:29 31.3 °F 30.2 °F 30.06 in Calm     96% 0.00 in
08:34 31.5 °F 30.4 °F 30.06 in Calm     96% 0.00 in
08:39 31.5 °F 30.4 °F 30.07 in Calm     96% 0.00 in
08:41 31.6 °F 30.6 °F 30.07 in Calm     96% 0.00 in
08:46 31.6 °F 30.6 °F 30.07 in Calm     96% 0.00 in
08:51 31.6 °F 30.6 °F 30.07 in Calm     96% 0.00 in
08:56 31.6 °F 30.6 °F 30.07 in Calm     96% 0.00 in
09:06 31.6 °F 30.6 °F 30.07 in Calm     96% 0.00 in
09:11 31.6 °F 30.6 °F 30.07 in Calm     96% 0.00 in
09:16 31.6 °F 30.6 °F 30.07 in Calm     96% 0.00 in
09:22 31.6 °F 30.6 °F 30.07 in Calm     96% 0.00 in
09:27 31.8 °F 31.1 °F 30.06 in Calm     97% 0.00 in
09:37 31.8 °F 31.1 °F 30.06 in Calm     97% 0.00 in
09:43 31.8 °F 31.1 °F 30.06 in Calm     97% 0.00 in
09:48 32.2 °F 31.5 °F 30.07 in Calm     97% 0.00 in
09:53 32.2 °F 31.5 °F 30.07 in Calm     97% 0.00 in
09:58 32.2 °F 31.5 °F 30.07 in Calm     97% 0.00 in
10:03 32.4 °F 31.6 °F 30.07 in Calm     97% 0.00 in
10:08 32.4 °F 31.6 °F 30.06 in Calm     97% 0.00 in
10:13 32.5 °F 31.8 °F 30.07 in Calm     97% 0.00 in
10:18 32.5 °F 31.5 °F 30.07 in Calm     96% 0.00 in
10:20 32.5 °F 31.5 °F 30.08 in Calm     96% 0.00 in
10:25 32.5 °F 31.5 °F 30.08 in Calm     96% 0.00 in
10:30 32.7 °F 31.6 °F 30.07 in Calm     96% 0.00 in
10:35 32.7 °F 31.6 °F 30.08 in Calm     96% 0.00 in
10:41 32.9 °F 31.8 °F 30.08 in Calm     96% 0.00 in
10:46 33.1 °F 32.0 °F 30.08 in Calm     96% 0.00 in
10:51 33.1 °F 32.0 °F 30.08 in Calm     96% 0.00 in
10:56 33.1 °F 32.0 °F 30.08 in Calm     96% 0.00 in
11:01 33.1 °F 32.0 °F 30.09 in Calm     96% 0.00 in
11:04 33.1 °F 31.8 °F 30.09 in Calm     95% 0.00 in
11:09 33.1 °F 31.8 °F 30.07 in Calm     95% 0.00 in
11:14 33.1 °F 31.8 °F 30.06 in Calm     95% 0.00 in
11:21 33.1 °F 31.8 °F 30.05 in Calm     95% 0.00 in
11:26 32.7 °F 31.5 °F 30.06 in Calm     95% 0.00 in
11:31 32.7 °F 31.5 °F 30.05 in Calm     95% 0.00 in
11:36 32.7 °F 31.5 °F 30.05 in Calm     95% 0.00 in
11:56 32.7 °F 31.5 °F 30.06 in Calm     95% 0.00 in
12:02 32.7 °F 31.5 °F 30.05 in Calm     95% 0.00 in
12:07 32.5 °F 31.3 °F 30.05 in Calm     95% 0.00 in
12:12 32.5 °F 31.3 °F 30.04 in Calm     95% 0.00 in
12:17 32.4 °F 31.1 °F 30.05 in Calm     95% 0.00 in
12:22 32.4 °F 31.1 °F 30.06 in Calm     95% 0.00 in
12:27 32.4 °F 31.3 °F 30.05 in Calm     96% 0.00 in
12:32 32.4 °F 31.3 °F 30.04 in Calm     96% 0.00 in
12:37 32.4 °F 31.3 °F 30.04 in Calm     96% 0.00 in
13:27 32.2 °F 31.1 °F 30.01 in Calm     96% 0.00 in
13:32 32.4 °F 31.3 °F 30.00 in Calm     96% 0.00 in
13:38 32.4 °F 31.3 °F 29.99 in Calm     96% 0.00 in
13:43 32.5 °F 31.8 °F 29.99 in Calm     97% 0.00 in
13:48 32.7 °F 32.0 °F 29.98 in Calm     97% 0.00 in
13:53 32.7 °F 31.6 °F 29.98 in Calm     96% 0.00 in
14:03 33.3 °F 32.5 °F 29.98 in Calm     97% 0.00 in
14:08 33.3 °F 32.5 °F 29.98 in Calm     97% 0.00 in
14:15 33.3 °F 32.2 °F 29.98 in Calm     96% 0.00 in
14:20 33.4 °F 32.4 °F 29.97 in Calm     96% 0.00 in
14:25 33.4 °F 32.4 °F 29.97 in Calm     96% 0.00 in
14:30 33.3 °F 32.0 °F 29.96 in Calm     95% 0.00 in
14:35 33.3 °F 32.0 °F 29.96 in Calm     95% 0.00 in
14:40 33.3 °F 32.0 °F 29.96 in Calm     95% 0.00 in
14:45 33.3 °F 32.0 °F 29.96 in Calm     95% 0.00 in
14:50 33.3 °F 32.0 °F 29.96 in Calm     95% 0.00 in
15:00 33.4 °F 32.2 °F 29.96 in Calm     95% 0.00 in
15:05 33.3 °F 32.0 °F 29.95 in Calm     95% 0.00 in
15:10 33.3 °F 32.0 °F 29.94 in Calm     95% 0.00 in
15:15 33.3 °F 32.0 °F 29.94 in Calm     95% 0.00 in
15:20 33.1 °F 31.8 °F 29.95 in Calm     95% 0.00 in
15:25 33.1 °F 31.8 °F 29.94 in Calm     95% 0.00 in
15:30 33.1 °F 31.8 °F 29.95 in Calm     95% 0.00 in
15:35 32.7 °F 31.5 °F 29.93 in Calm     95% 0.00 in
15:40 32.7 °F 31.5 °F 29.93 in Calm     95% 0.00 in
15:45 32.7 °F 31.5 °F 29.93 in Calm     95% 0.00 in
15:50 32.7 °F 31.6 °F 29.94 in Calm     96% 0.00 in
15:55 32.9 °F 31.8 °F 29.94 in Calm     96% 0.00 in
16:00 33.1 °F 32.0 °F 29.95 in Calm     96% 0.00 in
16:05 33.1 °F 32.0 °F 29.95 in Calm     96% 0.00 in
16:10 32.7 °F 31.6 °F 29.94 in Calm     96% 0.00 in
16:20 32.5 °F 31.5 °F 29.95 in Calm     96% 0.00 in
16:30 32.4 °F 31.3 °F 29.96 in Calm     96% 0.00 in
16:35 32.2 °F 31.1 °F 29.95 in Calm     96% 0.00 in
16:41 32.2 °F 31.1 °F 29.95 in Calm     96% 0.00 in
16:56 32.0 °F 31.3 °F 29.96 in Calm     97% 0.00 in
17:06 32.0 °F 31.3 °F 29.96 in Calm     97% 0.00 in
17:16 32.0 °F 31.3 °F 29.96 in Calm     97% 0.00 in
17:21 31.8 °F 31.1 °F 29.96 in Calm     97% 0.00 in
17:26 31.8 °F 31.1 °F 29.96 in Calm     97% 0.00 in
17:36 31.8 °F 31.1 °F 29.95 in Calm     97% 0.00 in
17:41 31.8 °F 31.1 °F 29.96 in Calm     97% 0.00 in
17:46 31.8 °F 31.1 °F 29.95 in Calm     97% 0.00 in
17:51 31.8 °F 31.1 °F 29.95 in Calm     97% 0.00 in
17:56 31.8 °F 31.1 °F 29.95 in Calm     97% 0.00 in
18:01 31.8 °F 31.1 °F 29.95 in Calm     97% 0.00 in
18:11 31.8 °F 31.1 °F 29.96 in Calm     97% 0.00 in
18:16 31.8 °F 31.1 °F 29.96 in Calm     97% 0.00 in
18:21 31.8 °F 31.1 °F 29.96 in Calm     97% 0.00 in
18:26 31.8 °F 31.1 °F 29.96 in Calm     97% 0.00 in
18:27 31.8 °F 31.1 °F 29.96 in Calm     97% 0.00 in
18:32 31.8 °F 31.1 °F 29.96 in Calm     97% 0.00 in
18:37 31.8 °F 31.1 °F 29.96 in Calm     97% 0.00 in
18:42 31.8 °F 31.1 °F 29.95 in Calm     97% 0.00 in
18:47 31.8 °F 31.1 °F 29.95 in Calm     97% 0.00 in
18:52 31.8 °F 31.1 °F 29.95 in Calm     97% 0.00 in
18:57 31.8 °F 31.1 °F 29.94 in Calm     97% 0.00 in
19:07 31.6 °F 30.9 °F 29.95 in Calm     97% 0.00 in
19:12 31.6 °F 30.9 °F 29.95 in Calm     97% 0.00 in
19:22 31.6 °F 30.9 °F 29.95 in Calm     97% 0.00 in
19:27 31.6 °F 30.9 °F 29.95 in Calm     97% 0.00 in
19:32 31.6 °F 30.9 °F 29.96 in Calm     97% 0.00 in
19:42 31.8 °F 31.1 °F 29.97 in Calm     97% 0.00 in
19:47 31.6 °F 30.9 °F 29.97 in Calm     97% 0.00 in
19:52 31.8 °F 31.1 °F 29.97 in Calm     97% 0.00 in
19:57 31.8 °F 31.1 °F 29.98 in Calm     97% 0.00 in
20:12 31.8 °F 31.1 °F 29.98 in Calm     97% 0.00 in
20:22 31.8 °F 31.1 °F 29.98 in Calm     97% 0.00 in
20:27 31.6 °F 30.9 °F 29.97 in Calm     97% 0.00 in
20:30 31.6 °F 30.9 °F 29.98 in Calm     97% 0.00 in
20:35 31.6 °F 30.9 °F 29.97 in Calm     97% 0.00 in
20:40 31.6 °F 31.1 °F 29.97 in Calm     98% 0.00 in
20:45 31.6 °F 31.1 °F 29.98 in Calm     98% 0.00 in
20:50 31.6 °F 31.1 °F 29.98 in Calm     98% 0.00 in
20:55 31.6 °F 31.1 °F 29.98 in Calm     98% 0.00 in
21:00 31.6 °F 31.1 °F 29.98 in Calm     98% 0.00 in
21:05 31.6 °F 31.1 °F 29.98 in Calm     98% 0.00 in
21:10 31.6 °F 31.1 °F 29.98 in Calm     98% 0.00 in
21:15 31.6 °F 31.1 °F 29.96 in Calm     98% 0.00 in
21:20 31.6 °F 31.1 °F 29.96 in Calm     98% 0.00 in
21:25 31.6 °F 31.1 °F 29.96 in Calm     98% 0.00 in
21:30 31.6 °F 31.1 °F 29.94 in Calm     98% 0.00 in
21:35 31.6 °F 31.1 °F 29.95 in Calm     98% 0.00 in
21:40 31.6 °F 31.1 °F 29.95 in Calm     98% 0.00 in
21:45 31.6 °F 31.1 °F 29.95 in Calm     98% 0.00 in
21:50 31.6 °F 31.1 °F 29.96 in Calm     98% 0.00 in
21:55 31.6 °F 31.1 °F 29.94 in Calm     98% 0.00 in
22:00 31.6 °F 31.1 °F 29.95 in Calm     98% 0.00 in
22:05 31.6 °F 31.1 °F 29.95 in Calm     98% 0.00 in
22:16 31.6 °F 31.1 °F 29.94 in Calm     98% 0.00 in
22:21 31.6 °F 31.1 °F 29.95 in Calm     98% 0.00 in
22:24 31.6 °F 31.1 °F 29.95 in Calm     98% 0.00 in
22:29 31.6 °F 31.1 °F 29.96 in Calm     98% 0.00 in
22:34 31.6 °F 31.1 °F 29.96 in Calm     98% 0.00 in
22:39 31.6 °F 31.1 °F 29.95 in Calm     98% 0.00 in
22:44 31.6 °F 31.1 °F 29.94 in Calm     98% 0.00 in
22:49 31.6 °F 31.1 °F 29.95 in Calm     98% 0.00 in
22:54 31.6 °F 31.1 °F 29.96 in Calm     98% 0.00 in
22:59 31.6 °F 31.1 °F 29.96 in Calm     98% 0.00 in
23:05 31.6 °F 31.1 °F 29.98 in Calm     98% 0.00 in
23:10 31.6 °F 31.1 °F 29.97 in Calm     98% 0.00 in
23:20 31.6 °F 31.1 °F 29.98 in Calm     98% 0.00 in
23:25 31.6 °F 31.1 °F 29.98 in Calm     98% 0.00 in
23:31 31.6 °F 31.1 °F 29.99 in Calm     98% 0.00 in
23:41 31.6 °F 31.1 °F 29.96 in Calm     98% 0.00 in
23:51 31.6 °F 31.1 °F 29.97 in Calm     98% 0.00 in
23:56 31.6 °F 31.1 °F 29.98 in Calm     98% 0.00 in
WheeWeather.com
Compliments of Weather Underground - 3.5 mb